This is the latest recevied weather packets stored in our database for station/object ALAKES. If no packets are shown the sender has not sent any weather packets the latest 10 day(s).
| Time | Temp. | Humidity | Pressure | Rain* | Wind** | Luminosity | Snow |
|---|---|---|---|---|---|---|---|
| 1787862315 | 16.67° C | 29% | - | 0 mm | - | - | - |
| 1787861688 | 17.22° C | 27% | - | 0 mm | - | - | - |
| 1787861064 | 17.22° C | 27% | - | 0 mm | - | - | - |
| 1787860424 | 17.78° C | 26% | - | 0 mm | - | - | - |
| 1787859822 | 17.22° C | 29% | - | 0 mm | - | - | - |
| 1787859778 | 17.22° C | 29% | - | 0 mm | - | - | - |
| 1787859140 | 17.78° C | 28% | - | 0 mm | - | - | - |
| 1787858493 | 17.22° C | 31% | - | 0 mm | - | - | - |
| 1787857831 | -17.78° C | - | - | 39.62 mm | - | - | - |
| 1787857179 | 16.67° C | 33% | - | 0 mm | - | - | - |
| 1787856519 | 17.22° C | 31% | - | 0 mm | - | - | - |
| 1787855864 | 16.67° C | 32% | - | 0 mm | - | - | - |
| 1787855212 | 16.11° C | 32% | - | 0 mm | - | - | - |
| 1787854576 | 16.11° C | 33% | - | 0 mm | - | - | - |
| 1787853942 | 16.67° C | 33% | - | 0 mm | - | - | - |
| 1787853314 | 16.11° C | 35% | - | 0 mm | - | - | - |
| 1787852684 | 16.11° C | 33% | - | 0 mm | - | - | - |
| 1787852046 | 15.56° C | 35% | - | 0 mm | - | - | - |
| 1787851408 | 15.56° C | 33% | - | 0 mm | - | - | - |
| 1787850772 | 15.56° C | 35% | - | 0 mm | - | - | - |
| 1787850139 | 15.56° C | 34% | - | 0 mm | - | - | - |
| 1787849504 | 15° C | 36% | - | 0 mm | - | - | - |
| 1787848867 | 15° C | 35% | - | 0 mm | - | - | - |
| 1787848218 | 15.56° C | 34% | - | 0 mm | - | - | - |
| 1787847591 | 15° C | 35% | - | 0 mm | - | - | - |
* Rain latest 24 hours (hover to see other rain measurements)
** Current wind speed in m/s (hover to see current wind gust speed)